sensor_id;sensor_type;location;lat;lon;timestamp;temperature;humidity
45489;DHT22;31236;55.026;61.042;2023-06-19T00:00:25;9.70;95.20
45489;DHT22;31236;55.026;61.042;2023-06-19T00:02:56;9.70;95.00
45489;DHT22;31236;55.026;61.042;2023-06-19T00:05:26;9.70;95.00
45489;DHT22;31236;55.026;61.042;2023-06-19T00:07:56;9.70;95.00
45489;DHT22;31236;55.026;61.042;2023-06-19T00:10:26;9.70;95.00
45489;DHT22;31236;55.026;61.042;2023-06-19T00:12:56;9.70;95.10
45489;DHT22;31236;55.026;61.042;2023-06-19T00:15:25;9.70;95.10
45489;DHT22;31236;55.026;61.042;2023-06-19T00:17:58;9.70;95.20
45489;DHT22;31236;55.026;61.042;2023-06-19T00:20:27;9.70;95.30
45489;DHT22;31236;55.026;61.042;2023-06-19T00:22:57;9.60;95.30
45489;DHT22;31236;55.026;61.042;2023-06-19T00:25:29;9.70;95.30
45489;DHT22;31236;55.026;61.042;2023-06-19T00:27:59;9.70;95.30
45489;DHT22;31236;55.026;61.042;2023-06-19T00:30:28;9.70;95.30
45489;DHT22;31236;55.026;61.042;2023-06-19T00:32:59;9.70;95.20
45489;DHT22;31236;55.026;61.042;2023-06-19T00:35:29;9.70;95.20
45489;DHT22;31236;55.026;61.042;2023-06-19T00:37:59;9.70;95.10
45489;DHT22;31236;55.026;61.042;2023-06-19T00:40:30;9.70;95.00
45489;DHT22;31236;55.026;61.042;2023-06-19T00:43:00;9.70;94.70
45489;DHT22;31236;55.026;61.042;2023-06-19T00:45:30;9.70;94.70
45489;DHT22;31236;55.026;61.042;2023-06-19T00:48:00;9.70;94.50
45489;DHT22;31236;55.026;61.042;2023-06-19T00:50:31;9.70;94.30
45489;DHT22;31236;55.026;61.042;2023-06-19T00:53:03;9.70;94.10
45489;DHT22;31236;55.026;61.042;2023-06-19T00:55:34;9.80;94.00
45489;DHT22;31236;55.026;61.042;2023-06-19T00:58:04;9.80;93.80
45489;DHT22;31236;55.026;61.042;2023-06-19T01:00:34;9.80;93.60
45489;DHT22;31236;55.026;61.042;2023-06-19T01:03:04;9.80;93.60
45489;DHT22;31236;55.026;61.042;2023-06-19T01:05:36;9.70;93.50
45489;DHT22;31236;55.026;61.042;2023-06-19T01:10:59;9.70;93.50
45489;DHT22;31236;55.026;61.042;2023-06-19T01:16:21;9.70;93.20
45489;DHT22;31236;55.026;61.042;2023-06-19T01:18:51;9.60;92.90
45489;DHT22;31236;55.026;61.042;2023-06-19T01:21:22;9.60;93.00
45489;DHT22;31236;55.026;61.042;2023-06-19T01:23:53;9.60;92.90
45489;DHT22;31236;55.026;61.042;2023-06-19T01:26:23;9.60;93.00
45489;DHT22;31236;55.026;61.042;2023-06-19T01:28:55;9.60;93.00
45489;DHT22;31236;55.026;61.042;2023-06-19T01:34:38;9.50;92.90
45489;DHT22;31236;55.026;61.042;2023-06-19T01:37:10;9.50;92.80
45489;DHT22;31236;55.026;61.042;2023-06-19T01:39:41;9.50;92.90
45489;DHT22;31236;55.026;61.042;2023-06-19T01:42:12;9.50;92.80
45489;DHT22;31236;55.026;61.042;2023-06-19T01:44:43;9.40;92.90
45489;DHT22;31236;55.026;61.042;2023-06-19T01:47:13;9.50;93.00
45489;DHT22;31236;55.026;61.042;2023-06-19T01:49:44;9.50;92.90
45489;DHT22;31236;55.026;61.042;2023-06-19T01:52:14;9.40;92.90
45489;DHT22;31236;55.026;61.042;2023-06-19T01:54:44;9.40;92.90
45489;DHT22;31236;55.026;61.042;2023-06-19T01:57:14;9.40;92.80
45489;DHT22;31236;55.026;61.042;2023-06-19T01:59:45;9.50;92.70
45489;DHT22;31236;55.026;61.042;2023-06-19T02:02:15;9.40;92.70
45489;DHT22;31236;55.026;61.042;2023-06-19T02:04:44;9.40;92.50
45489;DHT22;31236;55.026;61.042;2023-06-19T02:07:14;9.30;92.50
45489;DHT22;31236;55.026;61.042;2023-06-19T02:09:44;9.20;92.60
45489;DHT22;31236;55.026;61.042;2023-06-19T02:12:16;9.20;92.70
45489;DHT22;31236;55.026;61.042;2023-06-19T02:14:46;9.20;92.70
45489;DHT22;31236;55.026;61.042;2023-06-19T02:17:15;9.20;92.70
45489;DHT22;31236;55.026;61.042;2023-06-19T02:19:45;9.20;92.80
45489;DHT22;31236;55.026;61.042;2023-06-19T02:22:18;9.20;92.90
45489;DHT22;31236;55.026;61.042;2023-06-19T02:24:48;9.20;92.90
45489;DHT22;31236;55.026;61.042;2023-06-19T02:27:18;9.20;92.80
45489;DHT22;31236;55.026;61.042;2023-06-19T02:29:48;9.30;92.80
45489;DHT22;31236;55.026;61.042;2023-06-19T02:32:18;9.30;92.80
45489;DHT22;31236;55.026;61.042;2023-06-19T02:34:49;9.30;92.80
45489;DHT22;31236;55.026;61.042;2023-06-19T02:37:19;9.30;92.90
45489;DHT22;31236;55.026;61.042;2023-06-19T02:39:49;9.30;92.90
45489;DHT22;31236;55.026;61.042;2023-06-19T02:42:18;9.40;93.00
45489;DHT22;31236;55.026;61.042;2023-06-19T02:44:48;9.50;93.00
45489;DHT22;31236;55.026;61.042;2023-06-19T02:47:18;9.50;92.90
45489;DHT22;31236;55.026;61.042;2023-06-19T02:49:47;9.50;92.90
45489;DHT22;31236;55.026;61.042;2023-06-19T02:52:17;9.50;92.90
45489;DHT22;31236;55.026;61.042;2023-06-19T02:54:48;9.50;93.00
45489;DHT22;31236;55.026;61.042;2023-06-19T02:57:18;9.50;93.10
45489;DHT22;31236;55.026;61.042;2023-06-19T02:59:47;9.60;93.10
45489;DHT22;31236;55.026;61.042;2023-06-19T03:02:17;9.70;93.10
45489;DHT22;31236;55.026;61.042;2023-06-19T03:04:47;9.70;93.10
45489;DHT22;31236;55.026;61.042;2023-06-19T03:07:17;9.80;93.00
45489;DHT22;31236;55.026;61.042;2023-06-19T03:09:47;9.80;92.90
45489;DHT22;31236;55.026;61.042;2023-06-19T03:12:16;9.80;93.10
45489;DHT22;31236;55.026;61.042;2023-06-19T03:14:46;9.80;93.00
45489;DHT22;31236;55.026;61.042;2023-06-19T03:17:18;9.90;93.00
45489;DHT22;31236;55.026;61.042;2023-06-19T03:19:49;10.00;92.90
45489;DHT22;31236;55.026;61.042;2023-06-19T03:22:21;10.10;93.00
45489;DHT22;31236;55.026;61.042;2023-06-19T03:24:51;10.20;92.80
45489;DHT22;31236;55.026;61.042;2023-06-19T03:27:20;10.30;92.40
45489;DHT22;31236;55.026;61.042;2023-06-19T03:29:52;10.30;92.50
45489;DHT22;31236;55.026;61.042;2023-06-19T03:32:22;10.30;92.50
45489;DHT22;31236;55.026;61.042;2023-06-19T03:34:52;10.20;92.40
45489;DHT22;31236;55.026;61.042;2023-06-19T03:37:24;10.20;92.30
45489;DHT22;31236;55.026;61.042;2023-06-19T03:39:56;10.20;92.40
45489;DHT22;31236;55.026;61.042;2023-06-19T03:42:26;10.20;92.50
45489;DHT22;31236;55.026;61.042;2023-06-19T03:44:58;10.20;92.70
45489;DHT22;31236;55.026;61.042;2023-06-19T03:47:28;10.20;92.50
45489;DHT22;31236;55.026;61.042;2023-06-19T03:49:58;10.10;92.50
45489;DHT22;31236;55.026;61.042;2023-06-19T03:52:28;10.10;92.50
45489;DHT22;31236;55.026;61.042;2023-06-19T03:54:58;10.10;92.50
45489;DHT22;31236;55.026;61.042;2023-06-19T03:57:29;10.10;92.50
45489;DHT22;31236;55.026;61.042;2023-06-19T03:59:59;10.10;92.60
45489;DHT22;31236;55.026;61.042;2023-06-19T04:02:31;10.10;92.60
45489;DHT22;31236;55.026;61.042;2023-06-19T04:05:02;10.10;92.70
45489;DHT22;31236;55.026;61.042;2023-06-19T04:07:34;10.20;92.60
45489;DHT22;31236;55.026;61.042;2023-06-19T04:10:04;10.20;92.50
45489;DHT22;31236;55.026;61.042;2023-06-19T04:12:35;10.30;92.30
45489;DHT22;31236;55.026;61.042;2023-06-19T04:15:08;10.30;92.20
45489;DHT22;31236;55.026;61.042;2023-06-19T04:17:39;10.30;92.00
45489;DHT22;31236;55.026;61.042;2023-06-19T04:20:11;10.40;92.00
45489;DHT22;31236;55.026;61.042;2023-06-19T04:22:41;10.40;91.80
45489;DHT22;31236;55.026;61.042;2023-06-19T04:25:11;10.50;91.80
45489;DHT22;31236;55.026;61.042;2023-06-19T04:27:40;10.50;91.70
45489;DHT22;31236;55.026;61.042;2023-06-19T04:30:12;10.50;91.40
45489;DHT22;31236;55.026;61.042;2023-06-19T04:32:43;10.60;91.40
45489;DHT22;31236;55.026;61.042;2023-06-19T04:35:13;10.60;91.40
45489;DHT22;31236;55.026;61.042;2023-06-19T04:37:45;10.70;91.30
45489;DHT22;31236;55.026;61.042;2023-06-19T04:40:16;10.60;91.30
45489;DHT22;31236;55.026;61.042;2023-06-19T04:42:47;10.60;91.20
45489;DHT22;31236;55.026;61.042;2023-06-19T04:45:19;10.60;91.20
45489;DHT22;31236;55.026;61.042;2023-06-19T04:47:48;10.70;91.10
45489;DHT22;31236;55.026;61.042;2023-06-19T04:50:18;10.60;91.00
45489;DHT22;31236;55.026;61.042;2023-06-19T04:52:48;10.60;91.00
45489;DHT22;31236;55.026;61.042;2023-06-19T04:55:18;10.50;91.00
45489;DHT22;31236;55.026;61.042;2023-06-19T04:57:48;10.50;91.10
45489;DHT22;31236;55.026;61.042;2023-06-19T05:00:20;10.50;91.00
45489;DHT22;31236;55.026;61.042;2023-06-19T05:02:50;10.40;91.20
45489;DHT22;31236;55.026;61.042;2023-06-19T05:07:54;10.30;91.30
45489;DHT22;31236;55.026;61.042;2023-06-19T05:10:25;10.30;91.30
45489;DHT22;31236;55.026;61.042;2023-06-19T05:12:59;10.20;91.40
45489;DHT22;31236;55.026;61.042;2023-06-19T05:15:48;10.30;91.60
45489;DHT22;31236;55.026;61.042;2023-06-19T05:18:18;10.30;91.60
45489;DHT22;31236;55.026;61.042;2023-06-19T05:20:49;10.30;91.50
45489;DHT22;31236;55.026;61.042;2023-06-19T05:23:19;10.30;91.50
45489;DHT22;31236;55.026;61.042;2023-06-19T05:25:48;10.20;91.50
45489;DHT22;31236;55.026;61.042;2023-06-19T05:28:18;10.20;91.70
45489;DHT22;31236;55.026;61.042;2023-06-19T05:30:48;10.20;92.00
45489;DHT22;31236;55.026;61.042;2023-06-19T05:33:18;10.20;92.10
45489;DHT22;31236;55.026;61.042;2023-06-19T05:35:50;10.20;92.40
45489;DHT22;31236;55.026;61.042;2023-06-19T05:38:21;10.20;92.40
45489;DHT22;31236;55.026;61.042;2023-06-19T05:40:52;10.10;92.60
45489;DHT22;31236;55.026;61.042;2023-06-19T05:43:22;10.20;92.80
45489;DHT22;31236;55.026;61.042;2023-06-19T05:45:54;10.20;92.70
45489;DHT22;31236;55.026;61.042;2023-06-19T05:48:25;10.20;92.70
45489;DHT22;31236;55.026;61.042;2023-06-19T05:50:55;10.20;92.70
45489;DHT22;31236;55.026;61.042;2023-06-19T05:53:27;10.30;92.60
45489;DHT22;31236;55.026;61.042;2023-06-19T05:55:58;10.20;92.40
45489;DHT22;31236;55.026;61.042;2023-06-19T05:58:30;10.10;92.40
45489;DHT22;31236;55.026;61.042;2023-06-19T06:01:00;9.90;92.70
45489;DHT22;31236;55.026;61.042;2023-06-19T06:03:30;9.90;92.90
45489;DHT22;31236;55.026;61.042;2023-06-19T06:06:00;9.80;93.30
45489;DHT22;31236;55.026;61.042;2023-06-19T06:08:30;9.70;93.70
45489;DHT22;31236;55.026;61.042;2023-06-19T06:11:00;9.70;94.10
45489;DHT22;31236;55.026;61.042;2023-06-19T06:13:30;9.70;94.30
45489;DHT22;31236;55.026;61.042;2023-06-19T06:16:00;9.60;94.50
45489;DHT22;31236;55.026;61.042;2023-06-19T06:18:30;9.50;94.90
45489;DHT22;31236;55.026;61.042;2023-06-19T06:21:00;9.40;95.30
45489;DHT22;31236;55.026;61.042;2023-06-19T06:23:31;9.30;95.40
45489;DHT22;31236;55.026;61.042;2023-06-19T06:26:01;9.30;95.60
45489;DHT22;31236;55.026;61.042;2023-06-19T06:28:32;9.30;95.70
45489;DHT22;31236;55.026;61.042;2023-06-19T06:31:02;9.20;95.80
45489;DHT22;31236;55.026;61.042;2023-06-19T06:33:32;9.10;96.10
45489;DHT22;31236;55.026;61.042;2023-06-19T06:36:02;9.20;96.30
45489;DHT22;31236;55.026;61.042;2023-06-19T06:38:32;9.10;96.30
45489;DHT22;31236;55.026;61.042;2023-06-19T06:41:02;9.10;96.40
45489;DHT22;31236;55.026;61.042;2023-06-19T06:43:32;9.10;96.40
45489;DHT22;31236;55.026;61.042;2023-06-19T06:46:02;9.20;96.40
45489;DHT22;31236;55.026;61.042;2023-06-19T06:48:32;9.20;96.40
45489;DHT22;31236;55.026;61.042;2023-06-19T06:51:02;9.20;96.40
45489;DHT22;31236;55.026;61.042;2023-06-19T06:53:32;9.30;96.40
45489;DHT22;31236;55.026;61.042;2023-06-19T06:56:04;9.30;96.40
45489;DHT22;31236;55.026;61.042;2023-06-19T06:58:34;9.20;96.30
45489;DHT22;31236;55.026;61.042;2023-06-19T07:01:05;9.10;96.50
45489;DHT22;31236;55.026;61.042;2023-06-19T07:03:36;9.10;96.40
45489;DHT22;31236;55.026;61.042;2023-06-19T07:06:06;9.10;96.40
45489;DHT22;31236;55.026;61.042;2023-06-19T07:08:36;9.10;96.50
45489;DHT22;31236;55.026;61.042;2023-06-19T07:11:27;9.10;96.60
45489;DHT22;31236;55.026;61.042;2023-06-19T07:13:57;9.10;96.60
45489;DHT22;31236;55.026;61.042;2023-06-19T07:16:27;9.20;96.60
45489;DHT22;31236;55.026;61.042;2023-06-19T07:18:58;9.20;96.60
45489;DHT22;31236;55.026;61.042;2023-06-19T07:21:28;9.20;96.70
45489;DHT22;31236;55.026;61.042;2023-06-19T07:23:59;9.30;96.60
45489;DHT22;31236;55.026;61.042;2023-06-19T07:26:30;9.30;96.40
45489;DHT22;31236;55.026;61.042;2023-06-19T07:29:00;9.20;96.40
45489;DHT22;31236;55.026;61.042;2023-06-19T07:31:30;9.20;96.20
45489;DHT22;31236;55.026;61.042;2023-06-19T07:34:00;9.20;96.00
45489;DHT22;31236;55.026;61.042;2023-06-19T07:36:30;9.20;95.80
45489;DHT22;31236;55.026;61.042;2023-06-19T07:39:00;9.20;95.70
45489;DHT22;31236;55.026;61.042;2023-06-19T07:41:30;9.30;95.70
45489;DHT22;31236;55.026;61.042;2023-06-19T07:44:00;9.30;95.30
45489;DHT22;31236;55.026;61.042;2023-06-19T07:46:30;9.30;95.20
45489;DHT22;31236;55.026;61.042;2023-06-19T07:49:00;9.30;95.30
45489;DHT22;31236;55.026;61.042;2023-06-19T07:51:30;9.30;95.40
45489;DHT22;31236;55.026;61.042;2023-06-19T07:54:00;9.30;95.50
45489;DHT22;31236;55.026;61.042;2023-06-19T07:56:30;9.30;95.20
45489;DHT22;31236;55.026;61.042;2023-06-19T07:59:00;9.40;95.20
45489;DHT22;31236;55.026;61.042;2023-06-19T08:01:30;9.40;95.00
45489;DHT22;31236;55.026;61.042;2023-06-19T08:04:00;9.40;95.00
45489;DHT22;31236;55.026;61.042;2023-06-19T08:06:30;9.30;94.70
45489;DHT22;31236;55.026;61.042;2023-06-19T08:09:00;9.30;94.60
45489;DHT22;31236;55.026;61.042;2023-06-19T08:11:30;9.30;94.80
45489;DHT22;31236;55.026;61.042;2023-06-19T08:14:00;9.30;94.80
45489;DHT22;31236;55.026;61.042;2023-06-19T08:16:30;9.30;94.70
45489;DHT22;31236;55.026;61.042;2023-06-19T08:19:00;9.40;94.70
45489;DHT22;31236;55.026;61.042;2023-06-19T08:21:30;9.40;94.70
45489;DHT22;31236;55.026;61.042;2023-06-19T08:24:00;9.40;94.70
45489;DHT22;31236;55.026;61.042;2023-06-19T08:26:29;9.40;94.60
45489;DHT22;31236;55.026;61.042;2023-06-19T08:28:59;9.50;94.60
45489;DHT22;31236;55.026;61.042;2023-06-19T08:31:31;9.60;94.40
45489;DHT22;31236;55.026;61.042;2023-06-19T08:34:01;9.60;93.80
45489;DHT22;31236;55.026;61.042;2023-06-19T08:36:33;9.70;93.80
45489;DHT22;31236;55.026;61.042;2023-06-19T08:39:04;9.80;93.80
45489;DHT22;31236;55.026;61.042;2023-06-19T08:41:37;9.90;93.70
45489;DHT22;31236;55.026;61.042;2023-06-19T08:44:09;10.00;93.50
45489;DHT22;31236;55.026;61.042;2023-06-19T08:46:39;10.10;93.20
45489;DHT22;31236;55.026;61.042;2023-06-19T08:49:09;10.20;93.10
45489;DHT22;31236;55.026;61.042;2023-06-19T08:51:40;10.30;92.70
45489;DHT22;31236;55.026;61.042;2023-06-19T08:54:11;10.30;92.10
45489;DHT22;31236;55.026;61.042;2023-06-19T08:56:41;10.40;92.10
45489;DHT22;31236;55.026;61.042;2023-06-19T09:02:03;10.50;91.50
45489;DHT22;31236;55.026;61.042;2023-06-19T09:04:34;10.50;91.30
45489;DHT22;31236;55.026;61.042;2023-06-19T09:07:06;10.50;91.10
45489;DHT22;31236;55.026;61.042;2023-06-19T09:09:36;10.50;91.40
45489;DHT22;31236;55.026;61.042;2023-06-19T09:12:25;10.60;91.30
45489;DHT22;31236;55.026;61.042;2023-06-19T09:14:55;10.60;91.00
45489;DHT22;31236;55.026;61.042;2023-06-19T09:17:25;10.60;90.90
45489;DHT22;31236;55.026;61.042;2023-06-19T09:19:55;10.60;90.90
45489;DHT22;31236;55.026;61.042;2023-06-19T09:22:28;10.60;90.90
45489;DHT22;31236;55.026;61.042;2023-06-19T09:27:47;10.70;90.70
45489;DHT22;31236;55.026;61.042;2023-06-19T09:30:17;10.70;90.40
45489;DHT22;31236;55.026;61.042;2023-06-19T09:32:47;10.80;90.10
45489;DHT22;31236;55.026;61.042;2023-06-19T09:35:17;10.90;90.00
45489;DHT22;31236;55.026;61.042;2023-06-19T09:37:48;10.80;89.40
45489;DHT22;31236;55.026;61.042;2023-06-19T09:40:20;10.80;89.40
45489;DHT22;31236;55.026;61.042;2023-06-19T09:42:53;10.90;89.40
45489;DHT22;31236;55.026;61.042;2023-06-19T09:45:24;11.10;89.60
45489;DHT22;31236;55.026;61.042;2023-06-19T09:47:56;11.30;89.40
45489;DHT22;31236;55.026;61.042;2023-06-19T09:50:27;11.60;88.40
45489;DHT22;31236;55.026;61.042;2023-06-19T09:52:57;11.80;86.80
45489;DHT22;31236;55.026;61.042;2023-06-19T09:55:28;12.00;85.50
45489;DHT22;31236;55.026;61.042;2023-06-19T09:57:59;12.10;82.00
45489;DHT22;31236;55.026;61.042;2023-06-19T10:00:32;12.20;79.30
45489;DHT22;31236;55.026;61.042;2023-06-19T10:03:02;12.20;79.70
45489;DHT22;31236;55.026;61.042;2023-06-19T10:05:32;12.40;77.60
45489;DHT22;31236;55.026;61.042;2023-06-19T10:08:02;12.50;75.90
45489;DHT22;31236;55.026;61.042;2023-06-19T10:10:32;12.40;76.60
45489;DHT22;31236;55.026;61.042;2023-06-19T10:13:22;12.30;77.30
45489;DHT22;31236;55.026;61.042;2023-06-19T10:15:52;12.20;75.30
45489;DHT22;31236;55.026;61.042;2023-06-19T10:18:22;12.00;77.70
45489;DHT22;31236;55.026;61.042;2023-06-19T10:21:43;12.00;77.10
45489;DHT22;31236;55.026;61.042;2023-06-19T10:24:02;11.90;77.10
45489;DHT22;31236;55.026;61.042;2023-06-19T10:26:34;12.00;76.30
45489;DHT22;31236;55.026;61.042;2023-06-19T10:29:24;12.00;76.30
45489;DHT22;31236;55.026;61.042;2023-06-19T10:31:55;12.10;75.80
45489;DHT22;31236;55.026;61.042;2023-06-19T10:37:17;12.70;73.50
45489;DHT22;31236;55.026;61.042;2023-06-19T10:39:47;13.10;73.20
45489;DHT22;31236;55.026;61.042;2023-06-19T10:42:17;13.50;72.40
45489;DHT22;31236;55.026;61.042;2023-06-19T10:44:48;13.60;68.00
45489;DHT22;31236;55.026;61.042;2023-06-19T10:47:19;13.50;66.50
45489;DHT22;31236;55.026;61.042;2023-06-19T10:49:49;13.30;66.80
45489;DHT22;31236;55.026;61.042;2023-06-19T10:52:20;13.10;66.00
45489;DHT22;31236;55.026;61.042;2023-06-19T10:55:10;12.80;67.50
45489;DHT22;31236;55.026;61.042;2023-06-19T10:58:00;12.60;66.50
45489;DHT22;31236;55.026;61.042;2023-06-19T11:00:32;12.40;67.20
45489;DHT22;31236;55.026;61.042;2023-06-19T11:03:02;12.20;68.70
45489;DHT22;31236;55.026;61.042;2023-06-19T11:05:34;12.20;69.70
45489;DHT22;31236;55.026;61.042;2023-06-19T11:08:05;12.10;70.10
45489;DHT22;31236;55.026;61.042;2023-06-19T11:10:35;12.10;70.90
45489;DHT22;31236;55.026;61.042;2023-06-19T11:13:05;12.10;71.60
45489;DHT22;31236;55.026;61.042;2023-06-19T11:15:35;12.10;72.00
45489;DHT22;31236;55.026;61.042;2023-06-19T11:18:05;12.10;72.00
45489;DHT22;31236;55.026;61.042;2023-06-19T11:26:17;13.00;67.10
45489;DHT22;31236;55.026;61.042;2023-06-19T11:28:48;13.30;65.20
45489;DHT22;31236;55.026;61.042;2023-06-19T11:32:03;13.50;65.00
45489;DHT22;31236;55.026;61.042;2023-06-19T11:34:10;13.80;62.80
45489;DHT22;31236;55.026;61.042;2023-06-19T11:36:41;14.00;62.30
45489;DHT22;31236;55.026;61.042;2023-06-19T11:39:13;14.30;62.90
45489;DHT22;31236;55.026;61.042;2023-06-19T11:42:03;14.50;61.70
45489;DHT22;31236;55.026;61.042;2023-06-19T11:44:34;14.60;61.80
45489;DHT22;31236;55.026;61.042;2023-06-19T11:47:04;14.50;61.40
45489;DHT22;31236;55.026;61.042;2023-06-19T11:49:54;14.20;61.90
45489;DHT22;31236;55.026;61.042;2023-06-19T11:52:24;13.90;61.60
45489;DHT22;31236;55.026;61.042;2023-06-19T11:54:54;13.70;62.20
45489;DHT22;31236;55.026;61.042;2023-06-19T11:57:24;13.70;63.00
45489;DHT22;31236;55.026;61.042;2023-06-19T11:59:53;13.90;63.30
45489;DHT22;31236;55.026;61.042;2023-06-19T12:02:23;13.80;62.00
45489;DHT22;31236;55.026;61.042;2023-06-19T12:04:53;13.60;62.30
45489;DHT22;31236;55.026;61.042;2023-06-19T12:07:24;13.70;63.00
45489;DHT22;31236;55.026;61.042;2023-06-19T12:09:53;13.90;63.80
45489;DHT22;31236;55.026;61.042;2023-06-19T12:12:23;14.20;61.60
45489;DHT22;31236;55.026;61.042;2023-06-19T12:14:53;14.30;61.60
45489;DHT22;31236;55.026;61.042;2023-06-19T12:17:24;14.50;60.70
45489;DHT22;31236;55.026;61.042;2023-06-19T12:19:53;14.60;60.10
45489;DHT22;31236;55.026;61.042;2023-06-19T12:22:23;14.80;61.40
45489;DHT22;31236;55.026;61.042;2023-06-19T12:24:54;14.90;60.30
45489;DHT22;31236;55.026;61.042;2023-06-19T12:27:24;14.70;60.30
45489;DHT22;31236;55.026;61.042;2023-06-19T12:29:54;14.50;58.00
45489;DHT22;31236;55.026;61.042;2023-06-19T12:32:24;14.00;58.50
45489;DHT22;31236;55.026;61.042;2023-06-19T12:34:54;13.80;59.50
45489;DHT22;31236;55.026;61.042;2023-06-19T12:37:24;13.60;60.80
45489;DHT22;31236;55.026;61.042;2023-06-19T12:39:55;13.40;61.10
45489;DHT22;31236;55.026;61.042;2023-06-19T12:42:25;13.20;61.50
45489;DHT22;31236;55.026;61.042;2023-06-19T12:44:55;13.20;62.80
45489;DHT22;31236;55.026;61.042;2023-06-19T12:47:25;13.10;63.70
45489;DHT22;31236;55.026;61.042;2023-06-19T12:49:55;13.00;64.20
45489;DHT22;31236;55.026;61.042;2023-06-19T12:52:24;12.90;64.80
45489;DHT22;31236;55.026;61.042;2023-06-19T12:54:55;12.80;65.50
45489;DHT22;31236;55.026;61.042;2023-06-19T12:57:26;12.80;65.80
45489;DHT22;31236;55.026;61.042;2023-06-19T12:59:56;12.80;66.30
45489;DHT22;31236;55.026;61.042;2023-06-19T13:02:26;12.80;65.80
45489;DHT22;31236;55.026;61.042;2023-06-19T13:04:56;12.80;66.00
45489;DHT22;31236;55.026;61.042;2023-06-19T13:07:26;12.80;65.70
45489;DHT22;31236;55.026;61.042;2023-06-19T13:09:56;12.80;66.80
45489;DHT22;31236;55.026;61.042;2023-06-19T13:12:26;12.70;66.80
45489;DHT22;31236;55.026;61.042;2023-06-19T13:14:56;12.70;67.10
45489;DHT22;31236;55.026;61.042;2023-06-19T13:17:25;12.70;66.70
45489;DHT22;31236;55.026;61.042;2023-06-19T13:19:55;12.70;67.50
45489;DHT22;31236;55.026;61.042;2023-06-19T13:22:26;12.70;66.80
45489;DHT22;31236;55.026;61.042;2023-06-19T13:24:57;12.70;65.00
45489;DHT22;31236;55.026;61.042;2023-06-19T13:27:27;12.80;65.00
45489;DHT22;31236;55.026;61.042;2023-06-19T13:29:59;13.10;66.00
45489;DHT22;31236;55.026;61.042;2023-06-19T13:32:29;13.20;65.00
45489;DHT22;31236;55.026;61.042;2023-06-19T13:35:00;13.20;64.70
45489;DHT22;31236;55.026;61.042;2023-06-19T13:37:30;13.10;64.70
45489;DHT22;31236;55.026;61.042;2023-06-19T13:40:01;13.00;63.90
45489;DHT22;31236;55.026;61.042;2023-06-19T13:42:33;12.90;64.30
45489;DHT22;31236;55.026;61.042;2023-06-19T13:45:03;12.80;64.70
45489;DHT22;31236;55.026;61.042;2023-06-19T13:47:34;12.80;64.50
45489;DHT22;31236;55.026;61.042;2023-06-19T13:50:05;12.70;65.50
45489;DHT22;31236;55.026;61.042;2023-06-19T13:52:36;12.70;66.00
45489;DHT22;31236;55.026;61.042;2023-06-19T13:55:07;12.80;65.80
45489;DHT22;31236;55.026;61.042;2023-06-19T13:57:37;12.80;65.10
45489;DHT22;31236;55.026;61.042;2023-06-19T14:00:09;12.90;64.80
45489;DHT22;31236;55.026;61.042;2023-06-19T14:02:39;13.10;63.80
45489;DHT22;31236;55.026;61.042;2023-06-19T14:05:10;13.30;64.60
45489;DHT22;31236;55.026;61.042;2023-06-19T14:08:00;13.50;62.90
45489;DHT22;31236;55.026;61.042;2023-06-19T14:10:31;13.60;63.40
45489;DHT22;31236;55.026;61.042;2023-06-19T14:13:03;13.70;62.10
45489;DHT22;31236;55.026;61.042;2023-06-19T14:15:33;13.80;61.20
45489;DHT22;31236;55.026;61.042;2023-06-19T14:18:05;13.90;61.50
45489;DHT22;31236;55.026;61.042;2023-06-19T14:20:35;13.80;62.60
45489;DHT22;31236;55.026;61.042;2023-06-19T14:23:06;13.80;63.70
45489;DHT22;31236;55.026;61.042;2023-06-19T14:25:36;13.80;64.10
45489;DHT22;31236;55.026;61.042;2023-06-19T14:28:06;13.70;63.90
45489;DHT22;31236;55.026;61.042;2023-06-19T14:30:37;13.50;64.10
45489;DHT22;31236;55.026;61.042;2023-06-19T14:33:07;13.50;62.60
45489;DHT22;31236;55.026;61.042;2023-06-19T14:35:39;13.40;61.10
45489;DHT22;31236;55.026;61.042;2023-06-19T14:38:09;13.20;60.50
45489;DHT22;31236;55.026;61.042;2023-06-19T14:40:40;13.20;60.00
45489;DHT22;31236;55.026;61.042;2023-06-19T14:43:11;13.10;60.50
45489;DHT22;31236;55.026;61.042;2023-06-19T14:45:41;13.10;59.50
45489;DHT22;31236;55.026;61.042;2023-06-19T14:48:12;13.00;59.60
45489;DHT22;31236;55.026;61.042;2023-06-19T14:50:42;12.90;58.90
45489;DHT22;31236;55.026;61.042;2023-06-19T14:53:13;12.90;60.90
45489;DHT22;31236;55.026;61.042;2023-06-19T14:55:43;12.80;62.30
45489;DHT22;31236;55.026;61.042;2023-06-19T14:58:14;12.80;63.80
45489;DHT22;31236;55.026;61.042;2023-06-19T15:00:44;12.70;65.90
45489;DHT22;31236;55.026;61.042;2023-06-19T15:03:15;12.60;67.30
45489;DHT22;31236;55.026;61.042;2023-06-19T15:05:46;12.60;68.70
45489;DHT22;31236;55.026;61.042;2023-06-19T15:08:16;12.50;69.40
45489;DHT22;31236;55.026;61.042;2023-06-19T15:10:48;12.40;70.50
45489;DHT22;31236;55.026;61.042;2023-06-19T15:13:19;12.40;71.10
45489;DHT22;31236;55.026;61.042;2023-06-19T15:15:49;12.40;71.90
45489;DHT22;31236;55.026;61.042;2023-06-19T15:18:19;12.20;73.00
45489;DHT22;31236;55.026;61.042;2023-06-19T15:20:50;12.10;74.10
45489;DHT22;31236;55.026;61.042;2023-06-19T15:23:20;12.00;75.30
45489;DHT22;31236;55.026;61.042;2023-06-19T15:25:51;11.80;75.50
45489;DHT22;31236;55.026;61.042;2023-06-19T15:28:21;11.70;76.00
45489;DHT22;31236;55.026;61.042;2023-06-19T15:30:51;11.60;76.40
45489;DHT22;31236;55.026;61.042;2023-06-19T15:33:22;11.50;76.40
45489;DHT22;31236;55.026;61.042;2023-06-19T15:35:52;11.40;76.40
45489;DHT22;31236;55.026;61.042;2023-06-19T15:38:22;11.30;76.90
45489;DHT22;31236;55.026;61.042;2023-06-19T15:40:52;11.30;77.00
45489;DHT22;31236;55.026;61.042;2023-06-19T15:43:22;11.20;76.50
45489;DHT22;31236;55.026;61.042;2023-06-19T15:45:54;11.10;76.50
45489;DHT22;31236;55.026;61.042;2023-06-19T15:48:24;11.10;76.20
45489;DHT22;31236;55.026;61.042;2023-06-19T15:50:55;11.10;75.70
45489;DHT22;31236;55.026;61.042;2023-06-19T15:53:25;11.00;75.10
45489;DHT22;31236;55.026;61.042;2023-06-19T15:55:55;11.00;75.40
45489;DHT22;31236;55.026;61.042;2023-06-19T15:58:25;11.00;75.00
45489;DHT22;31236;55.026;61.042;2023-06-19T16:00:55;11.00;74.90
45489;DHT22;31236;55.026;61.042;2023-06-19T16:03:25;11.00;74.60
45489;DHT22;31236;55.026;61.042;2023-06-19T16:05:57;11.00;74.40
45489;DHT22;31236;55.026;61.042;2023-06-19T16:08:26;11.00;74.40
45489;DHT22;31236;55.026;61.042;2023-06-19T16:10:56;11.00;73.80